Time;durP1;ratioP1;P1;durP2;ratioP2;P2;SDS_P1;SDS_P2;PMS_P1;PMS_P2;Temp;Humidity;BMP_temperature;BMP_pressure;BME280_temperature;BME280_humidity;BME280_pressure;Samples;Min_cycle;Max_cycle;Signal;HPM_P1;HPM_P2
2022/02/06 00:01:13;;;;;;;7.90;2.57;;;;;;;5.68;66.10;100986.41;5026529;28;20412;-84
2022/02/06 00:03:40;;;;;;;6.80;2.30;;;;;;;5.70;66.16;100988.88;5032413;28;20413;-84
2022/02/06 00:06:07;;;;;;;5.07;1.55;;;;;;;5.68;66.39;100977.50;5013874;28;20415;-87
2022/02/06 00:08:32;;;;;;;6.97;2.05;;;;;;;5.73;65.90;100992.00;5017571;28;20445;-84
2022/02/06 00:10:57;;;;;;;6.70;2.00;;;;;;;5.75;66.19;100986.44;5018878;28;20826;-83
2022/02/06 00:13:22;;;;;;;11.03;2.00;;;;;;;5.74;66.33;100977.53;5017897;28;20482;-83
2022/02/06 00:15:48;;;;;;;5.47;1.80;;;;;;;5.77;66.50;100976.31;5012391;28;20972;-84
2022/02/06 00:18:13;;;;;;;10.30;2.60;;;;;;;5.81;65.96;100976.72;5012426;28;20506;-83
2022/02/06 00:20:49;;;;;;;5.37;1.73;;;;;;;5.85;66.27;100972.63;5024128;28;20897;-82
2022/02/06 00:23:17;;;;;;;7.75;2.22;;;;;;;5.80;66.13;100967.81;5021896;28;20874;-84
2022/02/06 00:25:57;;;;;;;8.25;2.40;;;;;;;5.71;66.28;100958.28;5011679;28;20786;-84
2022/02/06 00:28:37;;;;;;;7.05;2.33;;;;;;;5.75;65.86;100940.72;5014167;28;20491;-84
2022/02/06 00:31:17;;;;;;;5.72;1.92;;;;;;;5.71;66.69;100940.28;5017822;28;20416;-83
2022/02/06 00:41:22;;;;;;;7.13;1.60;;;;;;;5.72;66.46;100933.06;5014813;28;20401;-84
2022/02/06 00:43:49;;;;;;;8.85;1.90;;;;;;;5.74;66.47;100936.38;5026146;28;20399;-84
2022/02/06 00:46:16;;;;;;;5.90;1.67;;;;;;;5.74;65.68;100939.06;5028318;28;20419;-84
2022/02/06 00:48:46;;;;;;;8.80;2.22;;;;;;;5.73;66.14;100932.00;5025703;28;20783;-84
2022/02/06 00:51:16;;;;;;;6.80;2.03;;;;;;;5.68;66.41;100929.09;5014530;28;20411;-84
2022/02/06 00:53:42;;;;;;;5.22;1.42;;;;;;;5.68;66.20;100926.41;5018162;28;20405;-84
2022/02/06 00:56:09;;;;;;;6.77;2.03;;;;;;;5.70;66.50;100919.81;5011820;28;20432;-84
2022/02/06 00:58:34;;;;;;;6.47;1.67;;;;;;;5.66;66.61;100913.16;5028286;28;21020;-84
2022/02/06 01:01:00;;;;;;;7.20;1.60;;;;;;;5.62;66.70;100919.16;5014914;28;20507;-84
2022/02/06 01:03:25;;;;;;;4.93;1.98;;;;;;;5.59;66.64;100917.72;5034140;28;20418;-83
2022/02/06 01:05:51;;;;;;;5.30;1.73;;;;;;;5.58;66.22;100909.84;5016027;28;20412;-83
2022/02/06 01:08:16;;;;;;;6.13;2.07;;;;;;;5.51;66.70;100909.81;5020536;28;20403;-83
2022/02/06 01:10:41;;;;;;;6.60;2.03;;;;;;;5.45;66.87;100910.63;5013289;28;20397;-82
2022/02/06 01:13:31;;;;;;;6.40;1.87;;;;;;;5.40;67.11;100907.69;5019102;28;20399;-84
2022/02/06 01:16:05;;;;;;;7.50;2.28;;;;;;;5.37;67.05;100910.78;5022286;28;20510;-84
2022/02/06 01:18:39;;;;;;;6.53;2.20;;;;;;;5.34;67.05;100919.25;5019095;28;20401;-85
2022/02/06 01:21:40;;;;;;;3.92;1.70;;;;;;;5.36;66.67;100916.38;5012909;28;20436;-83
2022/02/06 01:24:03;;;;;;;7.00;1.83;;;;;;;5.36;66.68;100919.88;5020259;28;20400;-83
2022/02/06 01:29:08;;;;;;;5.40;1.90;;;;;;;5.23;67.69;100915.28;5017325;28;20413;-83
2022/02/06 01:34:06;;;;;;;6.75;2.08;;;;;;;5.15;67.69;100919.97;5013512;28;20717;-84
2022/02/06 01:36:43;;;;;;;7.05;1.70;;;;;;;5.12;67.73;100923.91;5024205;28;20408;-84
2022/02/06 01:39:36;;;;;;;7.15;2.17;;;;;;;5.14;68.20;100934.44;5009817;28;20393;-84
2022/02/06 01:42:07;;;;;;;6.70;2.03;;;;;;;5.16;67.89;100932.38;5012252;28;20452;-85
2022/02/06 01:45:07;;;;;;;7.32;1.95;;;;;;;5.21;67.81;100927.25;5028356;28;20411;-84
2022/02/06 02:01:23;;;;;;;7.80;2.17;;;;;;;4.85;68.86;100889.84;5020946;28;20411;-84
2022/02/06 02:04:03;;;;;;;6.10;2.40;;;;;;;4.84;69.12;100884.69;5016690;28;20829;-84
2022/02/06 02:06:55;;;;;;;8.82;2.10;;;;;;;4.82;69.05;100884.88;5021024;28;20767;-84
2022/02/06 02:09:51;;;;;;;7.22;2.50;;;;;;;4.80;69.29;100869.97;5015198;28;20443;-84
2022/02/06 02:25:16;;;;;;;7.72;3.05;;;;;;;4.64;69.82;100858.50;5027809;28;20395;-83
2022/02/06 02:46:31;;;;;;;4.85;1.95;;;;;;;4.73;69.35;100813.56;5019441;28;20965;-82
2022/02/06 02:48:58;;;;;;;7.07;2.15;;;;;;;4.70;69.20;100811.28;5012112;28;20427;-84
2022/02/06 02:51:26;;;;;;;8.37;1.87;;;;;;;4.69;69.18;100806.94;5014670;28;20444;-83
2022/02/06 02:53:59;;;;;;;10.02;1.80;;;;;;;4.70;69.11;100806.75;5019935;28;20492;-84
2022/02/06 02:59:00;;;;;;;7.13;2.07;;;;;;;4.72;68.83;100796.63;5018288;28;20459;-85
2022/02/06 03:04:10;;;;;;;6.47;2.05;;;;;;;4.81;68.64;100783.84;5023975;28;20477;-82
2022/02/06 03:06:35;;;;;;;7.27;1.87;;;;;;;4.82;68.42;100779.31;5013872;28;20408;-84
2022/02/06 03:09:01;;;;;;;5.00;2.13;;;;;;;4.84;68.31;100777.28;5027392;28;20416;-84
2022/02/06 03:11:27;;;;;;;6.28;1.65;;;;;;;4.82;68.65;100780.16;5016085;28;20404;-85
2022/02/06 03:16:23;;;;;;;6.37;1.67;;;;;;;4.95;68.22;100763.25;5024195;28;20407;-84
2022/02/06 03:18:58;;;;;;;6.85;2.47;;;;;;;4.94;68.11;100759.72;5020430;28;20412;-84
2022/02/06 03:21:27;;;;;;;8.60;1.60;;;;;;;4.94;68.49;100758.94;5023173;28;20438;-84
2022/02/06 03:23:55;;;;;;;8.27;2.58;;;;;;;4.95;68.14;100750.66;5028125;28;20407;-83
2022/02/06 03:26:23;;;;;;;6.95;2.70;;;;;;;4.97;68.24;100740.53;5013754;28;20413;-84
2022/02/06 03:28:49;;;;;;;10.17;3.97;;;;;;;5.06;67.67;100728.59;5014982;28;20943;-84
2022/02/06 03:31:15;;;;;;;15.80;6.40;;;;;;;5.04;67.78;100727.94;5016774;28;20760;-84
2022/02/06 03:33:41;;;;;;;7.07;2.63;;;;;;;5.10;67.79;100739.75;5012724;28;20413;-83
2022/02/06 03:36:06;;;;;;;13.73;4.13;;;;;;;5.08;67.75;100734.59;5026606;28;20424;-84
2022/02/06 03:38:31;;;;;;;9.43;3.83;;;;;;;5.14;67.57;100732.94;5043332;28;20458;-84
2022/02/06 03:41:02;;;;;;;9.77;4.73;;;;;;;5.11;68.10;100723.44;5031942;28;20906;-85
2022/02/06 03:46:21;;;;;;;9.60;3.17;;;;;;;5.11;67.86;100718.06;5018247;28;20726;-83
2022/02/06 03:48:51;;;;;;;9.48;2.53;;;;;;;5.10;67.97;100715.59;5016838;28;20469;-84
2022/02/06 03:51:19;;;;;;;7.10;2.97;;;;;;;5.13;67.79;100715.19;5016766;28;20397;-83
2022/02/06 03:53:48;;;;;;;6.47;1.40;;;;;;;5.14;67.62;100712.28;5026560;28;20918;-85
2022/02/06 03:56:14;;;;;;;7.60;1.88;;;;;;;5.17;67.41;100711.88;5019622;28;20426;-83
2022/02/06 03:58:40;;;;;;;3.75;1.45;;;;;;;5.18;67.49;100710.84;5022592;28;20736;-84
2022/02/06 04:01:05;;;;;;;4.33;1.87;;;;;;;5.21;67.19;100690.78;5025779;28;20387;-88
2022/02/06 04:03:30;;;;;;;5.90;1.80;;;;;;;5.15;68.24;100684.38;5014927;28;20408;-84
2022/02/06 04:05:55;;;;;;;5.30;1.47;;;;;;;5.20;67.49;100678.41;5032405;28;20831;-84
2022/02/06 04:08:21;;;;;;;6.03;1.83;;;;;;;5.19;67.67;100666.84;5016444;28;20417;-82
2022/02/06 04:10:50;;;;;;;5.03;1.60;;;;;;;5.18;67.85;100662.50;5011659;28;20399;-85
2022/02/06 04:13:20;;;;;;;7.88;2.75;;;;;;;5.16;68.21;100661.03;5011680;28;20419;-84
2022/02/06 04:15:50;;;;;;;4.93;2.33;;;;;;;5.20;67.96;100655.03;5027630;28;20551;-83
2022/02/06 04:18:22;;;;;;;10.15;2.25;;;;;;;5.24;67.80;100656.28;5018873;28;20449;-83
2022/02/06 04:20:47;;;;;;;7.15;1.45;;;;;;;5.35;67.08;100662.09;5027725;28;20917;-85
2022/02/06 04:23:13;;;;;;;7.00;2.00;;;;;;;5.29;67.77;100655.69;5029446;28;20445;-84
2022/02/06 04:25:38;;;;;;;9.50;2.00;;;;;;;5.27;67.76;100657.72;5026797;28;20408;-82
2022/02/06 04:28:04;;;;;;;4.40;1.60;;;;;;;5.28;68.13;100648.66;5013170;28;20899;-85
2022/02/06 04:30:29;;;;;;;10.33;1.80;;;;;;;5.29;67.81;100646.78;5017893;28;20412;-86
2022/02/06 04:32:55;;;;;;;7.27;2.50;;;;;;;5.30;67.80;100648.44;5013448;28;20396;-84
2022/02/06 04:35:22;;;;;;;6.80;1.70;;;;;;;5.30;68.26;100635.03;5015135;28;20444;-84
2022/02/06 04:51:16;;;;;;;5.37;2.23;;;;;;;5.24;68.33;100625.91;5014785;28;20412;-84
2022/02/06 04:53:52;;;;;;;4.63;1.73;;;;;;;5.24;68.21;100620.53;5019629;28;20802;-84
2022/02/06 05:15:51;;;;;;;7.25;1.92;;;;;;;5.41;68.15;100610.19;5021928;28;20490;-84
2022/02/06 05:18:37;;;;;;;3.13;1.52;;;;;;;5.48;67.64;100609.16;5012504;28;20741;-84
2022/02/06 05:21:37;;;;;;;5.03;1.42;;;;;;;5.51;67.58;100607.91;5021866;28;20397;-83
2022/02/06 05:24:28;;;;;;;5.35;1.27;;;;;;;5.50;67.93;100609.78;5012473;28;20459;-83
2022/02/06 05:27:10;;;;;;;6.38;1.30;;;;;;;5.53;67.52;100616.63;5012072;28;20451;-84
2022/02/06 05:29:49;;;;;;;4.53;1.55;;;;;;;5.55;67.22;100628.81;5016715;28;20393;-83
2022/02/06 05:32:24;;;;;;;4.13;1.27;;;;;;;5.57;67.27;100629.41;5015214;28;20396;-84
2022/02/06 05:34:49;;;;;;;9.43;1.70;;;;;;;5.58;67.16;100623.00;5020431;28;20460;-89
2022/02/06 05:37:15;;;;;;;4.78;1.58;;;;;;;5.66;66.97;100619.28;5022662;28;20427;-85
2022/02/06 05:39:40;;;;;;;7.90;2.30;;;;;;;5.64;67.39;100615.97;5011714;28;20428;-84
2022/02/06 05:42:05;;;;;;;5.70;1.77;;;;;;;5.63;67.34;100604.38;5016776;28;20424;-83
2022/02/06 05:44:31;;;;;;;5.85;1.75;;;;;;;5.64;67.08;100618.66;5016934;28;20949;-84
2022/02/06 05:46:56;;;;;;;6.40;1.33;;;;;;;5.66;67.32;100611.22;5015570;28;20422;-84
2022/02/06 05:49:21;;;;;;;5.40;1.70;;;;;;;5.70;67.09;100615.13;5024727;28;20771;-83
2022/02/06 05:51:48;;;;;;;4.13;1.20;;;;;;;5.72;66.87;100613.91;5011830;28;20487;-83
2022/02/06 05:54:14;;;;;;;4.40;1.70;;;;;;;5.74;67.48;100624.44;5017804;28;20398;-83
2022/02/06 05:56:39;;;;;;;11.38;2.38;;;;;;;5.75;68.28;100620.72;5019561;28;20405;-83
2022/02/06 05:59:05;;;;;;;6.67;2.33;;;;;;;5.69;68.71;100602.72;5011447;28;20393;-88
2022/02/06 06:01:30;;;;;;;9.47;2.13;;;;;;;5.64;69.02;100602.53;5024106;28;20419;-84
2022/02/06 06:03:56;;;;;;;5.18;1.60;;;;;;;5.63;69.59;100585.56;5014993;28;20412;-84
2022/02/06 06:06:22;;;;;;;8.45;1.90;;;;;;;5.62;69.17;100589.31;5015301;28;20403;-88
2022/02/06 06:08:47;;;;;;;6.32;1.65;;;;;;;5.62;69.28;100593.84;5018499;28;20413;-83
2022/02/06 06:11:12;;;;;;;7.40;2.22;;;;;;;5.69;69.31;100581.22;5011060;28;20401;-85
2022/02/06 06:13:37;;;;;;;7.37;1.80;;;;;;;5.64;69.36;100579.16;5011535;28;20423;-83
2022/02/06 06:16:06;;;;;;;7.43;1.77;;;;;;;5.65;69.65;100577.28;5016061;28;20924;-84
2022/02/06 06:18:32;;;;;;;8.80;1.67;;;;;;;5.64;69.82;100576.47;5012754;28;20488;-83
2022/02/06 06:20:57;;;;;;;8.43;1.70;;;;;;;5.68;69.63;100574.19;5021547;28;20487;-84
2022/02/06 06:23:24;;;;;;;5.73;1.60;;;;;;;5.74;68.38;100557.22;5023179;28;20412;-84
2022/02/06 06:25:50;;;;;;;6.82;1.75;;;;;;;5.74;68.53;100567.97;5011230;28;20455;-84
2022/02/06 06:28:16;;;;;;;6.15;1.73;;;;;;;5.73;68.90;100545.63;5023769;28;20406;-90
2022/02/06 06:30:41;;;;;;;6.17;1.83;;;;;;;5.79;68.73;100553.91;5015075;28;20748;-84
2022/02/06 06:33:07;;;;;;;5.00;1.80;;;;;;;5.80;68.82;100545.59;5014470;28;20425;-84
2022/02/06 06:35:32;;;;;;;7.20;2.83;;;;;;;5.82;68.37;100543.53;5017798;28;20772;-84
2022/02/06 06:38:01;;;;;;;7.90;2.40;;;;;;;5.84;67.89;100541.47;5016327;28;20451;-83
2022/02/06 06:40:27;;;;;;;8.05;2.30;;;;;;;5.87;67.81;100540.22;5020392;28;20469;-83
2022/02/06 06:42:52;;;;;;;7.53;1.80;;;;;;;5.86;68.04;100558.22;5027213;28;20438;-84
2022/02/06 06:45:17;;;;;;;7.37;2.13;;;;;;;5.88;67.67;100542.72;5015013;28;20485;-84
2022/02/06 06:47:50;;;;;;;9.40;2.70;;;;;;;5.88;67.99;100536.50;5027930;28;20416;-83
2022/02/06 06:50:18;;;;;;;5.22;1.70;;;;;;;5.87;68.30;100541.06;5024555;28;22929;-85
2022/02/06 06:52:45;;;;;;;7.70;1.58;;;;;;;5.88;68.01;100558.03;5017659;28;20441;-82
2022/02/06 06:55:13;;;;;;;9.25;1.90;;;;;;;5.89;68.13;100528.25;5023688;28;20418;-83
2022/02/06 06:57:42;;;;;;;6.38;2.10;;;;;;;5.92;68.01;100530.50;5017758;28;20764;-84
2022/02/06 07:00:21;;;;;;;8.00;1.75;;;;;;;5.97;67.85;100521.78;5018756;28;20426;-86
2022/02/06 07:02:46;;;;;;;3.95;1.67;;;;;;;5.99;67.41;100522.41;5029443;28;20409;-85
2022/02/06 07:05:13;;;;;;;7.35;2.25;;;;;;;6.03;67.44;100529.81;5016316;28;20408;-82
2022/02/06 07:07:39;;;;;;;4.40;1.63;;;;;;;6.06;67.35;100520.53;5026096;28;20439;-86
2022/02/06 07:10:06;;;;;;;8.83;1.60;;;;;;;6.06;67.16;100532.09;5026232;28;20475;-85
2022/02/06 07:12:31;;;;;;;6.90;1.73;;;;;;;6.03;67.35;100529.81;5019186;28;20417;-85
2022/02/06 07:14:56;;;;;;;6.07;1.40;;;;;;;6.02;67.64;100522.81;5029608;28;20457;-83
2022/02/06 07:17:22;;;;;;;7.43;1.70;;;;;;;6.08;67.31;100526.50;5040100;28;20403;-85
2022/02/06 07:19:48;;;;;;;4.65;1.45;;;;;;;6.04;67.38;100511.81;5017895;28;21039;-83
2022/02/06 07:22:16;;;;;;;11.40;1.95;;;;;;;6.07;67.55;100504.16;5029188;28;20419;-84
2022/02/06 07:24:43;;;;;;;4.18;1.52;;;;;;;6.09;67.41;100477.84;5032255;28;20436;-84
2022/02/06 07:27:28;;;;;;;6.18;1.50;;;;;;;6.15;67.22;100492.31;5031987;28;20435;-84
2022/02/06 07:29:53;;;;;;;5.47;1.63;;;;;;;6.14;67.35;100493.34;5021584;28;20411;-85
2022/02/06 07:32:19;;;;;;;5.93;1.53;;;;;;;6.16;67.13;100494.78;5024102;28;20416;-82
2022/02/06 07:34:44;;;;;;;4.55;1.60;;;;;;;6.17;66.82;100483.00;5019095;28;20411;-88
2022/02/06 07:37:10;;;;;;;3.67;1.20;;;;;;;6.21;66.60;100486.06;5024587;28;20404;-87
2022/02/06 07:39:36;;;;;;;6.80;2.20;;;;;;;6.19;67.65;100483.59;5025109;28;20794;-85
2022/02/06 07:42:02;;;;;;;5.63;1.87;;;;;;;6.12;68.82;100480.13;5028691;28;20425;-86
2022/02/06 07:44:27;;;;;;;6.13;1.50;;;;;;;6.09;69.84;100467.09;5018604;28;20424;-85
2022/02/06 07:47:01;;;;;;;3.93;1.40;;;;;;;6.05;69.48;100476.66;5014029;28;20409;-84
2022/02/06 07:49:26;;;;;;;6.25;1.42;;;;;;;6.07;68.90;100453.03;5014748;28;20442;-84
2022/02/06 07:51:52;;;;;;;5.70;1.50;;;;;;;6.10;68.51;100451.78;5023993;28;20454;-84
2022/02/06 07:54:17;;;;;;;2.30;1.33;;;;;;;6.13;68.23;100456.72;5025012;28;20418;-85
2022/02/06 07:56:42;;;;;;;4.17;1.40;;;;;;;6.20;68.00;100461.03;5022162;28;20428;-82
2022/02/06 07:59:07;;;;;;;6.93;1.43;;;;;;;6.13;68.85;100448.66;5020974;28;20886;-86
2022/02/06 08:01:33;;;;;;;4.73;1.57;;;;;;;6.12;69.10;100436.25;5016230;28;20411;-83
2022/02/06 08:03:59;;;;;;;7.38;1.75;;;;;;;6.12;68.90;100436.25;5014673;28;20397;-85
2022/02/06 08:06:24;;;;;;;4.40;1.53;;;;;;;6.14;69.34;100418.84;5012886;28;20508;-85
2022/02/06 08:08:49;;;;;;;5.47;1.37;;;;;;;6.17;69.01;100423.78;5012444;28;20404;-81
2022/02/06 08:11:16;;;;;;;7.13;1.60;;;;;;;6.19;69.73;100426.28;5019062;28;20403;-83
2022/02/06 08:13:52;;;;;;;5.60;1.80;;;;;;;6.20;70.33;100423.34;5016028;28;20789;-84
2022/02/06 08:16:18;;;;;;;7.80;1.90;;;;;;;6.15;71.02;100422.38;5030861;28;20415;-84
2022/02/06 08:18:43;;;;;;;6.05;1.65;;;;;;;6.16;70.48;100402.47;5017815;28;20810;-83
2022/02/06 08:21:10;;;;;;;5.97;1.53;;;;;;;6.15;70.74;100401.69;5023483;28;20407;-83
2022/02/06 08:23:35;;;;;;;5.80;1.90;;;;;;;6.15;69.95;100382.84;5022461;28;20396;-85
2022/02/06 08:26:02;;;;;;;5.55;1.52;;;;;;;6.24;70.31;100386.06;5020765;28;20787;-82
2022/02/06 08:28:28;;;;;;;3.03;1.10;;;;;;;6.26;70.19;100406.34;5016158;28;20451;-86
2022/02/06 08:30:53;;;;;;;4.83;1.10;;;;;;;6.33;69.99;100362.41;5032353;28;20431;-82
2022/02/06 08:33:18;;;;;;;6.53;1.00;;;;;;;6.33;70.14;100384.75;5021976;28;20417;-84
2022/02/06 08:35:45;;;;;;;5.00;1.23;;;;;;;6.34;70.43;100391.78;5012569;28;20926;-82
2022/02/06 08:38:12;;;;;;;4.60;1.60;;;;;;;6.31;70.72;100386.03;5024589;28;20486;-87
2022/02/06 08:40:38;;;;;;;6.20;1.73;;;;;;;6.31;70.57;100380.63;5016123;28;20443;-86
2022/02/06 08:43:03;;;;;;;6.82;1.55;;;;;;;6.24;71.11;100380.69;5017033;28;20425;-82
2022/02/06 08:45:30;;;;;;;5.10;1.50;;;;;;;6.19;71.60;100362.50;5025309;28;20417;-83
2022/02/06 08:47:55;;;;;;;7.33;1.90;;;;;;;6.24;71.06;100378.84;5015616;28;20400;-83
2022/02/06 08:50:20;;;;;;;4.47;1.47;;;;;;;6.23;71.50;100379.88;5020896;28;20533;-84
2022/02/06 08:52:46;;;;;;;8.10;2.50;;;;;;;6.19;71.57;100389.41;5013631;28;20498;-83
2022/02/06 08:55:12;;;;;;;6.30;1.65;;;;;;;6.20;70.52;100388.38;5017568;28;20414;-84
2022/02/06 08:57:44;;;;;;;7.10;1.80;;;;;;;6.21;70.27;100373.06;5009004;28;20411;-85
2022/02/06 09:00:10;;;;;;;7.80;1.77;;;;;;;6.20;70.59;100374.91;5023540;28;20421;-82
2022/02/06 09:02:35;;;;;;;3.80;1.10;;;;;;;6.25;70.54;100368.91;5025218;28;20484;-85
2022/02/06 09:05:02;;;;;;;5.00;1.40;;;;;;;6.26;71.21;100368.66;5009415;28;20405;-83
2022/02/06 09:07:28;;;;;;;8.43;2.20;;;;;;;6.25;71.12;100375.09;5021322;28;20893;-83
2022/02/06 09:09:58;;;;;;;10.83;1.60;;;;;;;6.19;72.76;100359.81;5016545;28;20395;-84
2022/02/06 09:12:23;;;;;;;6.13;1.25;;;;;;;6.12;74.08;100356.38;5024870;28;20491;-84
2022/02/06 09:14:49;;;;;;;5.17;1.60;;;;;;;6.20;74.12;100352.56;5027194;28;20519;-84
2022/02/06 09:17:15;;;;;;;4.88;1.52;;;;;;;6.15;73.25;100357.78;5021650;28;20740;-84
2022/02/06 09:19:40;;;;;;;5.72;1.55;;;;;;;6.12;73.77;100348.31;5014235;28;20796;-83
2022/02/06 09:22:10;;;;;;;8.07;1.83;;;;;;;6.14;73.78;100330.06;5012107;28;20450;-84
2022/02/06 09:24:36;;;;;;;6.22;1.67;;;;;;;6.14;73.48;100343.50;5027069;28;20400;-84
2022/02/06 09:27:02;;;;;;;5.70;1.80;;;;;;;6.19;72.86;100324.03;5016189;28;20745;-84
2022/02/06 09:29:27;;;;;;;5.77;1.50;;;;;;;6.16;72.95;100319.06;5025193;28;20426;-82
2022/02/06 09:31:53;;;;;;;3.95;1.30;;;;;;;6.19;72.19;100330.22;4994954;28;21056;-83
2022/02/06 09:36:44;;;;;;;5.95;1.95;;;;;;;6.34;71.84;100304.84;5030064;28;20905;-82
2022/02/06 09:39:11;;;;;;;8.43;1.90;;;;;;;6.36;71.65;100300.88;5033884;28;20454;-83
2022/02/06 09:41:37;;;;;;;6.95;1.20;;;;;;;6.36;72.31;100278.53;5025128;28;20431;-88
2022/02/06 09:44:04;;;;;;;4.40;1.40;;;;;;;6.33;72.04;100300.50;5028204;28;20498;-84
2022/02/06 09:46:30;;;;;;;5.82;1.80;;;;;;;6.41;72.66;100287.59;5018139;28;20474;-82
2022/02/06 09:48:56;;;;;;;5.57;1.75;;;;;;;6.23;74.76;100274.91;5023614;28;20387;-84
2022/02/06 09:51:23;;;;;;;6.07;2.63;;;;;;;6.19;76.23;100276.41;5023533;28;20825;-83
2022/02/06 09:53:48;;;;;;;6.88;2.30;;;;;;;6.16;75.37;100279.53;5020622;28;20412;-83
2022/02/06 09:56:15;;;;;;;10.33;3.63;;;;;;;6.08;75.80;100270.94;5018960;28;20582;-83
2022/02/06 09:59:25;;;;;;;5.40;1.67;;;;;;;6.17;74.57;100270.44;5013120;28;20903;-84
2022/02/06 10:01:36;;;;;;;5.27;1.53;;;;;;;6.24;74.97;100256.91;5022697;28;20498;-84
2022/02/06 10:04:04;;;;;;;6.28;1.50;;;;;;;6.22;75.14;100242.88;5021548;28;20394;-84
2022/02/06 10:06:41;;;;;;;8.00;2.40;;;;;;;6.21;75.45;100255.50;5019254;28;20415;-85
2022/02/06 10:09:08;;;;;;;3.70;1.25;;;;;;;6.18;76.00;100239.78;5015111;28;20915;-83
2022/02/06 10:11:39;;;;;;;3.50;1.10;;;;;;;6.15;75.89;100234.03;5030270;28;20757;-82
2022/02/06 10:14:04;;;;;;;13.83;1.57;;;;;;;6.26;75.08;100225.22;5019708;28;20405;-83
2022/02/06 10:16:30;;;;;;;4.50;1.57;;;;;;;6.27;75.72;100218.78;5021833;28;20415;-83
2022/02/06 10:18:55;;;;;;;4.90;1.23;;;;;;;6.30;75.25;100212.13;5016884;28;20507;-86
2022/02/06 10:21:29;;;;;;;5.90;2.03;;;;;;;6.45;73.84;100212.59;5003995;28;20463;-84
2022/02/06 10:24:07;;;;;;;5.28;1.13;;;;;;;6.49;74.02;100206.53;5003118;28;20416;-84
2022/02/06 10:26:39;;;;;;;5.18;1.05;;;;;;;6.45;73.98;100212.59;5000898;28;20423;-83
2022/02/06 10:29:36;;;;;;;4.30;1.37;;;;;;;6.42;73.73;100183.44;5006918;28;20420;-87
2022/02/06 10:31:59;;;;;;;6.88;1.27;;;;;;;6.48;74.60;100214.84;5009851;28;20429;-83
2022/02/06 10:34:30;;;;;;;5.10;1.57;;;;;;;6.39;75.52;100203.53;5005192;28;20419;-84
2022/02/06 10:37:18;;;;;;;6.90;1.45;;;;;;;6.34;76.78;100203.41;5008145;28;20765;-84
2022/02/06 10:39:57;;;;;;;5.20;1.00;;;;;;;6.33;77.53;100204.44;5006350;28;20820;-83
2022/02/06 10:42:37;;;;;;;3.57;0.97;;;;;;;6.32;77.97;100188.53;5004769;28;20431;-84
2022/02/06 10:45:52;;;;;;;6.38;1.15;;;;;;;6.33;78.68;100182.09;5010015;28;20419;-88
2022/02/06 10:48:23;;;;;;;4.57;1.27;;;;;;;6.22;79.12;100165.63;5002804;28;20429;-84
2022/02/06 10:50:48;;;;;;;5.65;1.67;;;;;;;6.18;79.81;100179.78;5007151;28;20402;-82
2022/02/06 10:53:15;;;;;;;3.05;1.00;;;;;;;6.03;81.12;100165.84;5021079;28;20434;-84
2022/02/06 10:56:04;;;;;;;3.55;0.95;;;;;;;5.99;81.45;100164.66;5009632;28;22989;-83
2022/02/06 10:58:34;;;;;;;5.97;1.67;;;;;;;5.88;82.47;100157.31;5009755;28;20418;-86
2022/02/06 11:01:29;;;;;;;5.90;1.27;;;;;;;5.79;83.20;100140.63;5012786;28;20768;-84
2022/02/06 11:04:19;;;;;;;4.65;1.25;;;;;;;5.82;83.22;100152.78;5012609;28;20792;-83
2022/02/06 11:07:03;;;;;;;5.10;1.45;;;;;;;6.02;83.27;100148.06;5006683;28;20478;-84
2022/02/06 11:09:30;;;;;;;3.78;1.50;;;;;;;5.98;83.13;100138.78;5016646;28;20552;-81
2022/02/06 11:11:58;;;;;;;5.30;1.10;;;;;;;5.95;84.04;100144.63;5020005;28;20490;-83
2022/02/06 11:14:25;;;;;;;4.33;1.30;;;;;;;6.01;83.99;100143.72;5013910;28;20404;-86
2022/02/06 11:16:51;;;;;;;4.00;1.90;;;;;;;5.99;84.08;100127.84;5012833;28;20417;-83
2022/02/06 11:19:17;;;;;;;4.80;1.98;;;;;;;5.96;84.37;100116.69;5011018;28;20457;-82
2022/02/06 11:21:43;;;;;;;6.87;2.23;;;;;;;5.93;85.41;100109.88;5017852;28;20500;-82
2022/02/06 11:24:17;;;;;;;6.13;1.50;;;;;;;5.99;84.79;100102.78;5012195;28;20495;-82
2022/02/06 11:26:43;;;;;;;7.13;1.30;;;;;;;5.93;85.19;100109.06;5009292;28;20422;-84
2022/02/06 11:29:10;;;;;;;4.07;1.10;;;;;;;5.98;85.21;100093.91;5012997;28;20411;-81
2022/02/06 11:31:35;;;;;;;3.75;1.40;;;;;;;6.09;84.38;100084.28;5010432;28;20403;-83
2022/02/06 11:34:01;;;;;;;4.03;1.83;;;;;;;5.98;85.20;100082.31;5031699;28;20411;-85
2022/02/06 11:43:45;;;;;;;6.00;1.33;;;;;;;6.03;85.33;100074.38;5020096;28;20560;-84
2022/02/06 11:45:32;;;;;;;6.53;1.42;;;;;;;6.15;84.58;100046.53;5014598;28;20989;-84
2022/02/06 11:48:04;;;;;;;7.72;1.67;;;;;;;6.16;84.93;100023.94;5017608;28;20409;-83
2022/02/06 11:50:32;;;;;;;2.70;1.50;;;;;;;6.08;85.63;100026.94;5015779;28;20926;-83
2022/02/06 11:53:00;;;;;;;3.75;0.88;;;;;;;6.11;85.49;100004.97;5012073;28;20420;-83
2022/02/06 11:55:36;;;;;;;3.80;1.52;;;;;;;6.09;85.50;99990.13;5009173;28;20469;-82
2022/02/06 11:58:28;;;;;;;6.50;1.35;;;;;;;6.12;85.56;99989.66;5011808;28;20834;-83
2022/02/06 12:01:05;;;;;;;6.68;1.40;;;;;;;6.13;85.56;99991.28;5015819;28;20416;-83
2022/02/06 12:03:53;;;;;;;5.82;1.85;;;;;;;6.05;86.10;99986.22;5024933;28;20533;-82
2022/02/06 12:06:19;;;;;;;4.33;1.20;;;;;;;5.98;86.86;99972.03;5016411;28;20538;-84
2022/02/06 12:09:04;;;;;;;4.00;2.10;;;;;;;5.99;86.47;99965.63;5013415;28;22329;-88
2022/02/06 12:11:32;;;;;;;7.32;1.67;;;;;;;6.05;86.47;99941.31;5005978;28;20449;-88
2022/02/06 12:14:25;;;;;;;3.78;1.20;;;;;;;6.07;86.56;99935.69;5007446;28;20912;-82
2022/02/06 12:20:09;;;;;;;5.32;1.25;;;;;;;5.99;87.62;99944.94;5010194;28;20428;-83
2022/02/06 12:22:38;;;;;;;4.07;1.60;;;;;;;5.93;88.49;99943.13;5009217;28;20914;-82
2022/02/06 12:25:25;;;;;;;7.40;1.67;;;;;;;5.91;88.43;99929.09;5006895;28;20447;-82
2022/02/06 12:28:22;;;;;;;2.80;1.02;;;;;;;5.87;88.46;99913.63;5005854;28;20419;-84
2022/02/06 12:30:53;;;;;;;4.13;1.30;;;;;;;5.84;88.61;99908.69;5008283;28;20535;-82
2022/02/06 12:34:10;;;;;;;9.15;1.95;;;;;;;5.89;89.44;99916.94;5008502;28;20419;-83
2022/02/06 12:39:21;;;;;;;4.80;1.88;;;;;;;5.86;89.00;99906.63;5006426;28;20447;-82
2022/02/06 12:41:47;;;;;;;4.65;1.00;;;;;;;5.90;87.71;99895.19;5008092;28;20421;-82
2022/02/06 12:44:15;;;;;;;4.53;1.30;;;;;;;5.90;87.50;99897.88;5021691;28;20929;-81
2022/02/06 12:46:41;;;;;;;4.25;1.40;;;;;;;5.88;88.30;99885.69;5009256;28;20426;-82
2022/02/06 12:49:06;;;;;;;6.47;1.90;;;;;;;5.91;88.78;99894.13;5006171;28;20411;-84
2022/02/06 12:51:35;;;;;;;4.63;1.57;;;;;;;5.93;88.53;99891.22;5003754;28;20404;-82
2022/02/06 12:54:03;;;;;;;3.28;1.48;;;;;;;5.88;88.76;99883.84;5013229;28;20462;-82
2022/02/06 12:56:33;;;;;;;4.72;1.25;;;;;;;5.86;89.17;99869.00;5006064;28;20418;-81
2022/02/06 12:58:59;;;;;;;3.15;1.73;;;;;;;5.86;88.49;99874.38;5008397;28;20416;-81
2022/02/06 13:01:43;;;;;;;3.85;0.95;;;;;;;5.84;88.30;99863.78;5021489;28;20503;-84
2022/02/06 13:04:11;;;;;;;4.60;1.50;;;;;;;5.78;89.25;99845.88;5008929;28;20413;-85
2022/02/06 13:06:40;;;;;;;4.55;1.42;;;;;;;5.78;89.02;99853.97;5006861;28;20410;-83
2022/02/06 13:09:12;;;;;;;2.95;1.08;;;;;;;5.70;89.13;99817.44;5011126;28;20411;-87
2022/02/06 13:11:46;;;;;;;3.08;1.40;;;;;;;5.78;89.30;99839.69;5006944;28;20411;-85
2022/02/06 13:14:24;;;;;;;3.25;1.23;;;;;;;5.75;89.73;99827.53;5005334;28;20785;-82
2022/02/06 13:17:01;;;;;;;5.88;1.50;;;;;;;5.73;90.58;99819.69;5007265;28;20423;-82
2022/02/06 13:22:11;;;;;;;6.37;1.60;;;;;;;5.71;90.57;99831.72;5007833;28;20416;-80
2022/02/06 13:27:23;;;;;;;5.10;1.80;;;;;;;5.66;91.10;99815.47;5007412;28;20432;-80
2022/02/06 13:30:04;;;;;;;7.53;1.55;;;;;;;5.63;91.52;99822.09;5004252;28;20445;-80
2022/02/06 13:35:35;;;;;;;4.57;1.60;;;;;;;5.61;92.41;99801.88;5006972;28;20417;-80
2022/02/06 13:38:11;;;;;;;3.95;1.67;;;;;;;5.58;92.76;99805.84;5011568;28;20412;-82
2022/02/06 13:40:45;;;;;;;4.38;1.65;;;;;;;5.63;92.51;99800.59;5012695;28;20927;-80
2022/02/06 13:43:17;;;;;;;6.57;1.67;;;;;;;5.60;92.46;99786.78;5015370;28;20425;-78
2022/02/06 13:45:43;;;;;;;4.78;1.15;;;;;;;5.59;92.77;99795.91;5015911;28;20419;-79
2022/02/06 13:48:14;;;;;;;4.80;2.17;;;;;;;5.57;92.92;99787.25;5021143;28;20404;-88
2022/02/06 13:50:46;;;;;;;6.85;1.98;;;;;;;5.58;92.76;99786.22;5019779;28;20417;-80
2022/02/06 13:53:20;;;;;;;3.40;2.08;;;;;;;5.58;92.74;99792.41;5022446;28;20412;-78